createdAt,value
2019-03-25T00:01:21.225Z,4.00
2019-03-25T00:03:50.791Z,4.00
2019-03-25T00:06:20.341Z,4.37
2019-03-25T00:09:03.260Z,4.27
2019-03-25T00:11:21.233Z,4.10
2019-03-25T00:13:50.825Z,3.43
2019-03-25T00:16:20.376Z,3.17
2019-03-25T00:18:50.008Z,3.27
2019-03-25T00:21:19.709Z,4.03
2019-03-25T00:23:49.307Z,4.07
2019-03-25T00:26:18.970Z,3.30
2019-03-25T00:28:48.566Z,3.17
2019-03-25T00:31:18.129Z,3.57
2019-03-25T00:33:47.638Z,4.30
2019-03-25T00:36:17.250Z,3.40
2019-03-25T00:38:46.828Z,3.73
2019-03-25T00:41:16.464Z,3.93
2019-03-25T00:43:46.007Z,4.30
2019-03-25T00:46:15.647Z,4.33
2019-03-25T00:48:45.242Z,3.93
2019-03-25T00:51:14.852Z,3.83
2019-03-25T00:53:44.454Z,4.00
2019-03-25T00:56:14.035Z,3.87
2019-03-25T00:58:43.676Z,4.53
2019-03-25T01:01:13.351Z,4.20
2019-03-25T01:03:42.937Z,4.60
2019-03-25T01:06:12.550Z,3.70
2019-03-25T01:08:42.077Z,4.10
2019-03-25T01:11:11.678Z,4.17
2019-03-25T01:13:41.302Z,4.33
2019-03-25T01:16:10.827Z,4.57
2019-03-25T01:18:40.442Z,3.70
2019-03-25T01:21:09.970Z,3.70
2019-03-25T01:23:39.592Z,4.07
2019-03-25T01:26:09.129Z,4.23
2019-03-25T01:28:38.741Z,4.50
2019-03-25T01:31:08.271Z,3.60
2019-03-25T01:33:37.804Z,3.80
2019-03-25T01:36:07.307Z,4.53
2019-03-25T01:38:36.895Z,4.60
2019-03-25T01:41:06.442Z,4.50
2019-03-25T01:43:36.032Z,4.17
2019-03-25T01:46:05.582Z,5.30
2019-03-25T01:48:35.081Z,5.23
2019-03-25T01:51:04.665Z,4.80
2019-03-25T01:53:34.273Z,5.17
2019-03-25T01:56:03.909Z,5.20
2019-03-25T01:58:33.500Z,5.90
2019-03-25T02:01:03.022Z,5.67
2019-03-25T02:03:32.629Z,4.50
2019-03-25T02:06:02.165Z,5.40
2019-03-25T02:08:31.677Z,5.43
2019-03-25T02:11:01.276Z,5.30
2019-03-25T02:13:30.932Z,5.17
2019-03-25T02:16:00.437Z,5.27
2019-03-25T02:18:29.975Z,4.87
2019-03-25T02:20:59.514Z,5.80
2019-03-25T02:23:29.205Z,4.87
2019-03-25T02:25:58.789Z,4.80
2019-03-25T02:28:31.432Z,5.07
2019-03-25T02:31:01.034Z,5.73
2019-03-25T02:33:30.660Z,5.53
2019-03-25T02:36:00.128Z,5.10
2019-03-25T02:38:32.235Z,5.20
2019-03-25T02:41:01.803Z,5.17
2019-03-25T02:43:31.351Z,5.57
2019-03-25T02:46:01.140Z,5.47
2019-03-25T02:48:30.746Z,4.80
2019-03-25T02:51:00.332Z,5.37
2019-03-25T02:53:31.682Z,5.57
2019-03-25T02:56:01.327Z,4.50
2019-03-25T02:58:30.926Z,5.33
2019-03-25T03:01:00.432Z,4.80
2019-03-25T03:03:30.067Z,6.20
2019-03-25T03:05:59.639Z,5.30
2019-03-25T03:08:29.210Z,6.47
2019-03-25T03:10:58.868Z,5.80
2019-03-25T03:13:28.434Z,5.37
2019-03-25T03:15:58.066Z,5.60
2019-03-25T03:18:27.661Z,6.07
2019-03-25T03:20:57.241Z,6.70
2019-03-25T03:23:26.859Z,5.97
2019-03-25T03:25:58.129Z,6.40
2019-03-25T03:28:27.767Z,6.10
2019-03-25T03:30:57.431Z,6.23
2019-03-25T03:33:26.927Z,6.67
2019-03-25T03:35:56.613Z,6.50
2019-03-25T03:38:26.184Z,7.03
2019-03-25T03:40:55.797Z,6.77
2019-03-25T03:43:25.361Z,6.47
2019-03-25T03:45:54.872Z,7.03
2019-03-25T03:48:24.371Z,6.03
2019-03-25T03:50:54.068Z,6.27
2019-03-25T03:53:23.606Z,6.57
2019-03-25T03:55:53.211Z,6.50
2019-03-25T03:58:23.406Z,6.47
2019-03-25T04:00:53.029Z,6.67
2019-03-25T04:03:22.630Z,6.13
2019-03-25T04:05:52.261Z,6.37
2019-03-25T04:08:21.837Z,6.20
2019-03-25T04:10:51.454Z,6.40
2019-03-25T04:13:21.034Z,6.30
2019-03-25T04:15:50.600Z,6.83
2019-03-25T04:18:20.101Z,6.70
2019-03-25T04:20:49.696Z,7.30
2019-03-25T04:23:19.281Z,7.10
2019-03-25T04:25:48.856Z,6.73
2019-03-25T04:28:18.512Z,7.20
2019-03-25T04:30:48.144Z,6.43
2019-03-25T04:33:17.648Z,6.30
2019-03-25T04:35:47.353Z,6.47
2019-03-25T04:38:16.995Z,6.87
2019-03-25T04:40:46.585Z,6.07
2019-03-25T04:43:16.205Z,5.97
2019-03-25T04:45:45.782Z,5.60
2019-03-25T04:48:15.290Z,5.23
2019-03-25T04:50:44.848Z,6.07
2019-03-25T04:53:14.441Z,4.57
2019-03-25T04:55:44.038Z,5.67
2019-03-25T04:58:13.714Z,6.10
2019-03-25T05:00:43.245Z,4.73
2019-03-25T05:03:12.789Z,4.73
2019-03-25T05:05:42.400Z,5.13
2019-03-25T05:08:11.973Z,5.63
2019-03-25T05:10:41.434Z,5.13
2019-03-25T05:13:11.003Z,5.37
2019-03-25T05:15:40.547Z,6.40
2019-03-25T05:18:10.128Z,6.57
2019-03-25T05:20:39.597Z,6.70
2019-03-25T05:23:09.200Z,7.40
2019-03-25T05:25:38.658Z,7.17
2019-03-25T05:28:08.069Z,7.37
2019-03-25T05:30:37.633Z,6.13
2019-03-25T05:33:07.235Z,6.40
2019-03-25T05:35:36.801Z,7.07
2019-03-25T05:38:06.357Z,6.67
2019-03-25T05:40:35.955Z,8.90
2019-03-25T05:43:05.462Z,6.90
2019-03-25T05:45:35.017Z,7.10
2019-03-25T05:48:04.607Z,7.40
2019-03-25T05:50:34.215Z,6.80
2019-03-25T05:53:03.942Z,7.47
2019-03-25T05:55:33.529Z,6.77
2019-03-25T05:58:03.141Z,6.83
2019-03-25T06:00:35.054Z,6.57
2019-03-25T06:03:04.583Z,6.63
2019-03-25T06:05:34.155Z,5.73
2019-03-25T06:08:03.762Z,5.93
2019-03-25T06:10:33.291Z,5.00
2019-03-25T06:13:03.306Z,4.73
2019-03-25T06:15:32.976Z,4.80
2019-03-25T06:18:02.569Z,4.17
2019-03-25T06:20:33.318Z,4.53
2019-03-25T06:23:02.856Z,4.53
2019-03-25T06:25:32.485Z,5.13
2019-03-25T06:28:02.043Z,3.47
2019-03-25T06:30:31.474Z,4.40
2019-03-25T06:33:11.967Z,4.40
2019-03-25T06:35:32.434Z,3.87
2019-03-25T06:38:02.036Z,4.17
2019-03-25T06:40:31.687Z,3.43
2019-03-25T06:43:01.265Z,3.67
2019-03-25T06:45:30.857Z,3.47
2019-03-25T06:48:00.565Z,4.40
2019-03-25T06:50:31.332Z,4.97
2019-03-25T06:53:08.069Z,5.53
2019-03-25T06:55:37.907Z,5.03
2019-03-25T06:58:18.266Z,4.33
2019-03-25T07:01:55.674Z,5.43
2019-03-25T07:04:28.937Z,4.30
2019-03-25T07:11:30.391Z,5.73
2019-03-25T07:14:30.710Z,5.40
2019-03-25T07:17:00.757Z,4.87
2019-03-25T07:20:07.717Z,4.57
2019-03-25T07:22:40.759Z,4.80
2019-03-25T07:25:17.724Z,4.03
2019-03-25T07:28:11.522Z,4.83
2019-03-25T07:34:14.227Z,3.50
2019-03-25T07:38:18.749Z,4.23
2019-03-25T07:51:44.560Z,3.93
2019-03-25T07:54:14.234Z,4.10
2019-03-25T07:56:44.101Z,5.57
2019-03-25T07:59:13.789Z,5.20
2019-03-25T08:01:43.507Z,5.17
2019-03-25T08:04:13.160Z,4.80
2019-03-25T08:06:42.866Z,4.80
2019-03-25T08:09:12.476Z,4.67
2019-03-25T08:11:42.380Z,4.57
2019-03-25T08:14:11.968Z,4.90
2019-03-25T08:16:41.623Z,5.17
2019-03-25T08:19:11.501Z,5.30
2019-03-25T08:21:41.379Z,4.67
2019-03-25T08:24:17.436Z,5.23
2019-03-25T08:26:47.282Z,4.27
2019-03-25T08:29:18.943Z,4.87
2019-03-25T08:31:48.967Z,4.93
2019-03-25T08:34:22.583Z,4.47
2019-03-25T08:36:52.407Z,3.50
2019-03-25T08:39:22.232Z,4.27
2019-03-25T08:41:52.091Z,3.97
2019-03-25T08:44:26.139Z,3.17
2019-03-25T08:47:15.562Z,4.13
2019-03-25T08:49:49.456Z,2.97
2019-03-25T08:54:55.107Z,2.67
2019-03-25T08:57:25.096Z,2.00
2019-03-25T09:00:03.936Z,2.93
2019-03-25T09:02:55.214Z,2.40
2019-03-25T09:05:24.974Z,2.53
2019-03-25T09:18:21.847Z,2.23
2019-03-25T09:19:13.850Z,2.63
2019-03-25T09:25:40.632Z,2.20
2019-03-25T09:28:10.309Z,3.13
2019-03-25T09:34:37.432Z,2.13
2019-03-25T09:37:52.870Z,2.53
2019-03-25T09:41:20.482Z,2.40
2019-03-25T09:47:04.480Z,1.63
2019-03-25T09:49:34.237Z,2.60
2019-03-25T10:12:32.476Z,1.83
2019-03-25T10:15:47.814Z,1.90
2019-03-25T12:44:06.245Z,1.30
2019-03-25T12:46:37.383Z,1.77
2019-03-25T12:49:07.519Z,1.33
2019-03-25T12:51:37.515Z,1.60
2019-03-25T12:54:10.958Z,1.37
2019-03-25T12:56:40.518Z,1.47
2019-03-25T12:59:10.339Z,1.80
2019-03-25T13:01:40.025Z,1.13
2019-03-25T13:04:09.620Z,1.10
2019-03-25T13:06:39.206Z,0.97
2019-03-25T13:09:09.063Z,1.70
2019-03-25T13:11:38.689Z,1.47
2019-03-25T13:14:08.579Z,1.90
2019-03-25T13:16:38.244Z,1.93
2019-03-25T13:19:08.166Z,1.50
2019-03-25T13:21:37.838Z,1.90
2019-03-25T13:24:07.564Z,2.33
2019-03-25T13:26:37.013Z,3.30
2019-03-25T13:29:06.854Z,3.83
2019-03-25T13:31:37.212Z,3.30
2019-03-25T13:34:06.884Z,4.07
2019-03-25T13:36:36.429Z,3.53
2019-03-25T13:39:06.938Z,3.07
2019-03-25T13:41:36.543Z,2.83
2019-03-25T13:44:06.289Z,2.27
2019-03-25T13:46:36.085Z,1.60
2019-03-25T13:49:05.719Z,1.43
2019-03-25T13:51:35.355Z,1.80
2019-03-25T13:54:06.935Z,1.80
2019-03-25T13:56:36.364Z,1.23
2019-03-25T13:59:05.921Z,2.00
2019-03-25T14:01:35.551Z,2.00
2019-03-25T14:04:05.092Z,2.07
2019-03-25T14:06:34.744Z,1.90
2019-03-25T14:09:05.408Z,1.97
2019-03-25T14:11:35.130Z,2.23
2019-03-25T14:14:04.721Z,2.00
2019-03-25T14:16:34.244Z,1.97
2019-03-25T14:19:03.877Z,2.07
2019-03-25T14:21:33.428Z,2.13
2019-03-25T14:24:03.167Z,1.80
2019-03-25T14:26:32.913Z,2.27
2019-03-25T14:29:02.433Z,4.13
2019-03-25T14:31:32.067Z,2.90
2019-03-25T14:34:01.685Z,3.30
2019-03-25T14:36:31.465Z,2.90
2019-03-25T14:39:01.110Z,3.63
2019-03-25T14:41:31.847Z,2.53
2019-03-25T14:44:01.510Z,2.80
2019-03-25T14:46:31.499Z,2.60
2019-03-25T14:49:01.164Z,2.80
2019-03-25T14:51:30.782Z,2.73
2019-03-25T14:54:00.403Z,2.60
2019-03-25T14:56:30.034Z,2.83
2019-03-25T14:58:59.675Z,2.37
2019-03-25T15:01:29.231Z,2.57
2019-03-25T15:03:58.907Z,2.37
2019-03-25T15:06:28.473Z,2.80
2019-03-25T15:08:58.205Z,2.97
2019-03-25T15:11:27.793Z,2.83
2019-03-25T15:13:57.425Z,2.50
2019-03-25T15:16:27.103Z,2.80
2019-03-25T15:18:56.703Z,2.03
2019-03-25T15:21:26.353Z,3.00
2019-03-25T15:23:55.960Z,2.10
2019-03-25T15:26:25.546Z,2.27
2019-03-25T15:28:55.121Z,2.30
2019-03-25T15:31:24.755Z,1.87
2019-03-25T15:33:54.777Z,2.30
2019-03-25T15:36:24.371Z,2.97
2019-03-25T15:38:53.970Z,2.40
2019-03-25T15:41:23.629Z,2.80
2019-03-25T15:43:53.212Z,3.17
2019-03-25T15:46:22.908Z,1.87
2019-03-25T15:48:52.601Z,2.27
2019-03-25T15:51:22.276Z,2.20
2019-03-25T15:53:51.956Z,2.13
2019-03-25T15:56:21.604Z,2.13
2019-03-25T15:58:51.185Z,2.10
2019-03-25T16:01:20.833Z,2.27
2019-03-25T16:03:50.479Z,2.03
2019-03-25T16:06:22.327Z,2.93
2019-03-25T16:08:51.424Z,1.63
2019-03-25T16:11:21.243Z,1.70
2019-03-25T16:13:50.918Z,2.03
2019-03-25T16:16:20.670Z,3.40
2019-03-25T16:18:50.421Z,1.90
2019-03-25T16:21:19.922Z,1.80
2019-03-25T16:23:51.913Z,1.30
2019-03-25T16:26:21.561Z,1.50
2019-03-25T16:28:51.260Z,1.77
2019-03-25T16:31:20.853Z,1.77
2019-03-25T16:33:50.630Z,1.80
2019-03-25T16:36:20.247Z,1.60
2019-03-25T16:38:50.022Z,1.67
2019-03-25T16:41:20.104Z,1.73
2019-03-25T16:43:49.915Z,1.97
2019-03-25T16:46:19.693Z,1.77
2019-03-25T16:48:57.322Z,2.30
2019-03-25T16:51:27.146Z,2.00
2019-03-25T16:54:00.694Z,1.50
2019-03-25T16:56:32.603Z,1.97
2019-03-25T16:59:02.214Z,1.60
2019-03-25T17:01:34.917Z,1.67
2019-03-25T17:04:04.414Z,1.53
2019-03-25T17:06:34.169Z,1.80
2019-03-25T17:09:04.381Z,1.40
2019-03-25T17:11:33.976Z,1.37
2019-03-25T17:14:03.623Z,1.87
2019-03-25T17:16:33.265Z,0.90
2019-03-25T17:19:02.928Z,1.90
2019-03-25T17:21:32.505Z,1.50
2019-03-25T17:24:02.165Z,2.40
2019-03-25T17:26:41.963Z,1.77
2019-03-25T17:29:03.243Z,1.77
2019-03-25T17:31:33.139Z,1.30
2019-03-25T17:34:02.726Z,1.53
2019-03-25T17:36:32.501Z,2.10
2019-03-25T17:39:02.270Z,1.73
2019-03-25T17:41:33.429Z,2.23
2019-03-25T17:44:03.774Z,2.10
2019-03-25T17:46:33.768Z,2.40
2019-03-25T17:49:03.384Z,2.20
2019-03-25T17:51:33.081Z,1.10
2019-03-25T17:54:02.752Z,2.60
2019-03-25T17:56:32.507Z,2.17
2019-03-25T17:59:02.066Z,2.20
2019-03-25T18:01:34.030Z,2.40
2019-03-25T18:04:03.729Z,1.67
2019-03-25T18:06:33.739Z,1.80
2019-03-25T18:09:04.491Z,1.60
2019-03-25T18:11:37.047Z,2.30
2019-03-25T18:14:06.861Z,2.23
2019-03-25T18:16:36.546Z,2.97
2019-03-25T18:19:06.572Z,1.47
2019-03-25T18:21:36.240Z,2.50
2019-03-25T18:24:06.085Z,1.93
2019-03-25T18:26:35.935Z,2.23
2019-03-25T18:29:08.894Z,2.10
2019-03-25T18:31:43.209Z,2.13
2019-03-25T18:34:10.328Z,2.30
2019-03-25T18:36:40.449Z,2.30
2019-03-25T18:39:10.175Z,2.80
2019-03-25T18:41:42.598Z,2.70
2019-03-25T18:44:12.433Z,2.50
2019-03-25T18:46:42.318Z,2.20
2019-03-25T18:49:12.267Z,2.10
2019-03-25T18:51:42.075Z,2.40
2019-03-25T18:54:11.952Z,1.90
2019-03-25T18:56:43.257Z,2.13
2019-03-25T18:59:13.478Z,2.27
2019-03-25T19:01:54.148Z,2.10
2019-03-25T19:04:18.142Z,3.17
2019-03-25T19:06:51.392Z,2.07
2019-03-25T19:09:21.596Z,2.00
2019-03-25T19:11:51.408Z,2.23
2019-03-25T19:14:21.284Z,2.07
2019-03-25T19:16:51.181Z,2.20
2019-03-25T19:19:20.818Z,2.80
2019-03-25T19:21:50.518Z,2.00
2019-03-25T19:24:20.103Z,2.00
2019-03-25T19:26:50.099Z,2.50
2019-03-25T19:29:19.792Z,2.80
2019-03-25T19:31:49.468Z,2.30
2019-03-25T19:34:19.032Z,1.87
2019-03-25T19:36:48.536Z,2.67
2019-03-25T19:39:18.254Z,2.87
2019-03-25T19:41:47.991Z,2.70
2019-03-25T19:44:17.537Z,2.47
2019-03-25T19:46:47.116Z,2.37
2019-03-25T19:49:16.708Z,2.40
2019-03-25T19:51:46.317Z,2.13
2019-03-25T19:54:16.112Z,2.53
2019-03-25T19:56:45.744Z,2.27
2019-03-25T19:59:15.417Z,2.90
2019-03-25T20:01:45.199Z,2.57
2019-03-25T20:04:14.840Z,2.87
2019-03-25T20:06:44.706Z,2.60
2019-03-25T20:09:14.265Z,2.60
2019-03-25T20:11:44.137Z,2.53
2019-03-25T20:14:13.744Z,2.87
2019-03-25T20:16:43.376Z,2.47
2019-03-25T20:19:12.960Z,3.70
2019-03-25T20:21:42.516Z,2.97
2019-03-25T20:24:12.138Z,3.03
2019-03-25T20:26:41.746Z,3.10
2019-03-25T20:29:11.357Z,3.20
2019-03-25T20:31:40.900Z,4.13
2019-03-25T20:34:11.569Z,3.80
2019-03-25T20:36:41.340Z,3.70
2019-03-25T20:39:10.938Z,3.00
2019-03-25T20:41:40.587Z,3.27
2019-03-25T20:44:10.131Z,2.70
2019-03-25T20:46:39.785Z,3.10
2019-03-25T20:49:09.391Z,3.00
2019-03-25T20:51:38.969Z,2.73
2019-03-25T20:54:08.429Z,2.87
2019-03-25T20:56:37.899Z,2.77
2019-03-25T20:59:07.402Z,2.63
2019-03-25T21:01:37.206Z,2.53
2019-03-25T21:04:06.814Z,2.67
2019-03-25T21:06:36.360Z,2.33
2019-03-25T21:09:06.605Z,2.27
2019-03-25T21:11:36.279Z,2.83
2019-03-25T21:14:06.063Z,3.07
2019-03-25T21:16:35.640Z,2.73
2019-03-25T21:19:05.672Z,2.80
2019-03-25T21:21:35.429Z,3.43
2019-03-25T21:24:05.033Z,3.13
2019-03-25T21:26:34.873Z,2.83
2019-03-25T21:29:04.380Z,2.13
2019-03-25T21:31:33.968Z,2.87
2019-03-25T21:34:03.610Z,2.93
2019-03-25T21:36:33.323Z,3.57
2019-03-25T21:39:03.094Z,2.80
2019-03-25T21:41:32.659Z,3.63
2019-03-25T21:44:02.345Z,3.30
2019-03-25T21:46:31.957Z,4.17
2019-03-25T21:49:01.438Z,3.50
2019-03-25T21:51:31.129Z,2.73
2019-03-25T21:54:00.672Z,2.90
2019-03-25T21:56:30.315Z,3.97
2019-03-25T21:59:00.560Z,2.90
2019-03-25T22:01:30.194Z,3.53
2019-03-25T22:03:59.782Z,2.60
2019-03-25T22:06:29.416Z,2.73
2019-03-25T22:08:59.191Z,2.60
2019-03-25T22:11:28.741Z,2.53
2019-03-25T22:13:58.368Z,4.13
2019-03-25T22:16:27.850Z,3.20
2019-03-25T22:18:57.569Z,2.67
2019-03-25T22:21:28.843Z,3.43
2019-03-25T22:23:58.559Z,2.00
2019-03-25T22:26:28.010Z,2.50
2019-03-25T22:28:57.675Z,2.20
2019-03-25T22:31:27.143Z,2.23
2019-03-25T22:33:56.762Z,2.20
2019-03-25T22:36:26.342Z,2.97
2019-03-25T22:38:56.057Z,2.43
2019-03-25T22:41:25.684Z,2.70
2019-03-25T22:43:55.275Z,3.50
2019-03-25T22:46:24.870Z,2.90
2019-03-25T22:48:54.421Z,2.73
2019-03-25T22:51:23.996Z,3.17
2019-03-25T22:53:53.586Z,2.97
2019-03-25T22:56:24.038Z,3.23
2019-03-25T22:58:53.627Z,2.70
2019-03-25T23:01:23.315Z,2.70
2019-03-25T23:03:52.919Z,2.93
2019-03-25T23:06:22.490Z,3.50
2019-03-25T23:08:52.179Z,2.50
2019-03-25T23:11:21.776Z,4.00
2019-03-25T23:13:54.419Z,3.97
2019-03-25T23:16:24.052Z,3.33
2019-03-25T23:18:53.627Z,3.93
2019-03-25T23:21:23.067Z,3.33
2019-03-25T23:23:52.570Z,4.17
2019-03-25T23:26:22.214Z,3.53
2019-03-25T23:28:51.896Z,4.00
2019-03-25T23:31:21.485Z,4.33
2019-03-25T23:33:52.369Z,5.17
2019-03-25T23:36:22.186Z,4.37
2019-03-25T23:38:51.876Z,5.00
2019-03-25T23:41:21.532Z,4.57
2019-03-25T23:43:51.160Z,4.47
2019-03-25T23:46:20.785Z,4.10
2019-03-25T23:48:50.412Z,4.87
2019-03-25T23:51:20.056Z,5.13
2019-03-25T23:53:49.687Z,5.03
2019-03-25T23:56:19.292Z,5.07
2019-03-25T23:58:48.938Z,4.17
